Time,TemperatureF,DewpointF,PressureIn,WindDirection,WindDirectionDegrees,WindSpeedMPH,WindSpeedGustMPH,Humidity,HourlyPrecipIn,Conditions,Clouds,dailyrainin,SoftwareType,DateUTC
2013-04-11 00:07:00,26.6,20.4,29.89,East,90,6.7,-999.0,77,-99.99,,,0.00,Acu-Link.com,2013-04-11 06:07:00,
2013-04-11 00:22:00,25.7,19.8,29.88,East,90,7.8,-999.0,78,-99.99,,,0.00,Acu-Link.com,2013-04-11 06:22:00,
2013-04-11 00:37:00,24.6,19.1,29.88,ESE,112,8.9,-999.0,79,-99.99,,,0.00,Acu-Link.com,2013-04-11 06:37:00,
2013-04-11 00:53:00,23.7,19.0,29.87,ESE,112,7.8,-999.0,82,-99.99,,,0.00,Acu-Link.com,2013-04-11 06:53:00,
2013-04-11 01:08:00,23.7,19.3,29.87,South,180,5.8,-999.0,83,-99.99,,,0.00,Acu-Link.com,2013-04-11 07:08:00,
2013-04-11 01:23:00,23.2,19.4,29.87,SSE,157,5.1,-999.0,85,-99.99,,,0.00,Acu-Link.com,2013-04-11 07:23:00,
2013-04-11 01:38:00,22.6,19.4,29.87,ESE,112,6.3,-999.0,87,-99.99,,,0.00,Acu-Link.com,2013-04-11 07:38:00,
2013-04-11 01:54:00,23.9,20.9,29.87,ESE,112,7.8,-999.0,88,-99.99,,,0.00,Acu-Link.com,2013-04-11 07:54:00,
2013-04-11 02:09:00,24.3,21.5,29.86,ESE,112,3.1,-999.0,89,-99.99,,,0.00,Acu-Link.com,2013-04-11 08:09:00,
2013-04-11 02:24:00,24.4,21.7,29.86,ESE,112,3.8,-999.0,89,-99.99,,,0.00,Acu-Link.com,2013-04-11 08:24:00,
2013-04-11 02:40:00,25.0,22.7,29.85,South,180,5.1,-999.0,91,-99.99,,,0.00,Acu-Link.com,2013-04-11 08:40:00,
2013-04-11 02:55:00,25.0,23.0,29.85,SSE,157,6.3,-999.0,92,-99.99,,,0.00,Acu-Link.com,2013-04-11 08:55:00,
2013-04-11 03:10:00,25.0,23.2,29.85,South,180,4.7,-999.0,93,-99.99,,,0.00,Acu-Link.com,2013-04-11 09:10:00,
2013-04-11 03:25:00,25.0,23.2,29.84,SSE,157,7.8,-999.0,93,-99.99,,,0.00,Acu-Link.com,2013-04-11 09:25:00,
2013-04-11 03:40:00,24.8,23.1,29.83,SSW,202,5.8,-999.0,93,-99.99,,,0.00,Acu-Link.com,2013-04-11 09:40:00,
2013-04-11 03:55:00,24.6,22.6,29.83,SSW,202,5.8,-999.0,92,-99.99,,,0.00,Acu-Link.com,2013-04-11 09:55:00,
2013-04-11 04:11:00,24.6,22.6,29.82,South,180,5.1,-999.0,92,-99.99,,,0.00,Acu-Link.com,2013-04-11 10:11:00,
2013-04-11 04:26:00,24.6,22.6,29.81,South,180,4.3,-999.0,92,-99.99,,,0.00,Acu-Link.com,2013-04-11 10:26:00,
2013-04-11 04:41:00,24.4,22.5,29.81,South,180,3.8,-999.0,92,-99.99,,,0.00,Acu-Link.com,2013-04-11 10:41:00,
2013-04-11 04:56:00,23.9,22.2,29.80,South,180,2.2,-999.0,93,-99.99,,,0.00,Acu-Link.com,2013-04-11 10:56:00,
2013-04-11 05:11:00,23.2,21.7,29.80,SSW,202,1.6,-999.0,94,-99.99,,,0.00,Acu-Link.com,2013-04-11 11:11:00,
2013-04-11 05:26:00,22.3,20.8,29.79,SSW,202,0.0,-999.0,94,-99.99,,,0.00,Acu-Link.com,2013-04-11 11:26:00,
2013-04-11 05:42:00,21.7,20.8,29.79,SSW,202,2.2,-999.0,96,-99.99,,,0.00,Acu-Link.com,2013-04-11 11:42:00,
2013-04-11 05:57:00,21.2,20.2,29.79,SSW,202,0.0,-999.0,96,-99.99,,,0.00,Acu-Link.com,2013-04-11 11:57:00,
2013-04-11 06:12:00,21.2,20.2,29.79,SE,135,2.2,-999.0,96,-99.99,,,0.00,Acu-Link.com,2013-04-11 12:12:00,
2013-04-11 06:27:00,21.2,20.5,29.80,West,270,0.0,-999.0,97,-99.99,,,0.00,Acu-Link.com,2013-04-11 12:27:00,
2013-04-11 06:42:00,21.6,20.8,29.79,West,270,0.0,-999.0,97,-99.99,,,0.00,Acu-Link.com,2013-04-11 12:42:00,
2013-04-11 06:58:00,23.5,22.3,29.79,West,270,3.1,-999.0,95,-99.99,,,0.00,Acu-Link.com,2013-04-11 12:58:00,
2013-04-11 07:13:00,25.3,23.3,29.79,West,270,0.0,-999.0,92,-99.99,,,0.00,Acu-Link.com,2013-04-11 13:13:00,
2013-04-11 07:28:00,27.0,23.3,29.80,West,270,0.0,-999.0,86,-99.99,,,0.00,Acu-Link.com,2013-04-11 13:28:00,
2013-04-11 07:43:00,28.0,23.8,29.79,West,270,1.6,-999.0,84,-99.99,,,0.00,Acu-Link.com,2013-04-11 13:43:00,
2013-04-11 07:58:00,27.7,23.2,29.79,West,270,2.7,-999.0,83,-99.99,,,0.00,Acu-Link.com,2013-04-11 13:58:00,
2013-04-11 08:14:00,30.2,22.9,29.79,NW,315,1.6,-999.0,74,-99.99,,,0.00,Acu-Link.com,2013-04-11 14:14:00,
2013-04-11 08:29:00,29.3,22.4,29.79,NW,315,4.7,-999.0,75,-99.99,,,0.00,Acu-Link.com,2013-04-11 14:29:00,
2013-04-11 08:44:00,30.2,23.2,29.79,North,0,3.1,-999.0,75,-99.99,,,0.00,Acu-Link.com,2013-04-11 14:44:00,
2013-04-11 08:59:00,28.6,21.0,29.79,NE,45,2.7,-999.0,73,-99.99,,,0.00,Acu-Link.com,2013-04-11 14:59:00,
2013-04-11 09:14:00,29.1,21.6,29.79,East,90,2.2,-999.0,73,-99.99,,,0.00,Acu-Link.com,2013-04-11 15:14:00,
2013-04-11 09:29:00,28.6,20.7,29.79,ENE,67,5.8,-999.0,72,-99.99,,,0.00,Acu-Link.com,2013-04-11 15:29:00,
2013-04-11 09:45:00,28.6,20.4,29.79,East,90,2.2,-999.0,71,-99.99,,,0.00,Acu-Link.com,2013-04-11 15:45:00,
2013-04-11 10:00:00,29.1,21.2,29.79,ESE,112,6.3,-999.0,72,-99.99,,,0.00,Acu-Link.com,2013-04-11 16:00:00,
2013-04-11 10:15:00,29.7,21.8,29.79,East,90,6.3,-999.0,72,-99.99,,,0.00,Acu-Link.com,2013-04-11 16:15:00,
2013-04-11 10:30:00,30.9,21.6,29.79,North,0,2.7,-999.0,68,-99.99,,,0.00,Acu-Link.com,2013-04-11 16:30:00,
2013-04-11 10:45:00,31.1,21.8,29.79,ENE,67,1.6,-999.0,68,-99.99,,,0.00,Acu-Link.com,2013-04-11 16:45:00,
2013-04-11 11:01:00,31.1,21.4,29.79,East,90,6.3,-999.0,67,-99.99,,,0.00,Acu-Link.com,2013-04-11 17:01:00,
2013-04-11 11:16:00,31.8,21.8,29.78,ESE,112,7.4,-999.0,66,-99.99,,,0.00,Acu-Link.com,2013-04-11 17:16:00,
2013-04-11 11:31:00,32.5,22.5,29.78,East,90,7.8,-999.0,66,-99.99,,,0.00,Acu-Link.com,2013-04-11 17:31:00,
2013-04-11 11:46:00,33.6,23.1,29.77,ENE,67,3.8,-999.0,65,-99.99,,,0.00,Acu-Link.com,2013-04-11 17:46:00,
2013-04-11 12:01:00,33.8,22.9,29.77,SE,135,5.1,-999.0,64,-99.99,,,0.00,Acu-Link.com,2013-04-11 18:01:00,
2013-04-11 12:17:00,35.2,22.4,29.76,ENE,67,5.8,-999.0,59,-99.99,,,0.00,Acu-Link.com,2013-04-11 18:17:00,
2013-04-11 12:32:00,37.2,24.2,29.76,NE,45,4.3,-999.0,59,-99.99,,,0.00,Acu-Link.com,2013-04-11 18:32:00,
2013-04-11 12:47:00,35.4,22.9,29.76,East,90,11.9,-999.0,60,-99.99,,,0.00,Acu-Link.com,2013-04-11 18:47:00,
2013-04-11 13:02:00,37.0,23.7,29.75,NNE,22,6.3,-999.0,58,-99.99,,,0.00,Acu-Link.com,2013-04-11 19:02:00,
2013-04-11 13:17:00,37.6,25.0,29.75,East,90,9.4,-999.0,60,-99.99,,,0.00,Acu-Link.com,2013-04-11 19:17:00,
2013-04-11 13:32:00,36.9,23.1,29.74,ENE,67,5.1,-999.0,57,-99.99,,,0.00,Acu-Link.com,2013-04-11 19:32:00,
2013-04-11 13:48:00,37.0,23.2,29.75,East,90,8.3,-999.0,57,-99.99,,,0.00,Acu-Link.com,2013-04-11 19:48:00,
2013-04-11 14:03:00,37.6,23.7,29.75,East,90,7.8,-999.0,57,-99.99,,,0.00,Acu-Link.com,2013-04-11 20:03:00,
2013-04-11 14:18:00,38.5,23.7,29.75,NNE,22,5.8,-999.0,55,-99.99,,,0.00,Acu-Link.com,2013-04-11 20:18:00,
2013-04-11 14:33:00,38.7,23.5,29.75,East,90,6.3,-999.0,54,-99.99,,,0.00,Acu-Link.com,2013-04-11 20:33:00,
2013-04-11 14:48:00,39.7,24.0,29.75,East,90,10.3,-999.0,53,-99.99,,,0.00,Acu-Link.com,2013-04-11 20:48:00,
2013-04-11 15:04:00,38.8,23.6,29.75,ESE,112,8.9,-999.0,54,-99.99,,,0.00,Acu-Link.com,2013-04-11 21:04:00,
2013-04-11 15:19:00,38.8,24.1,29.75,SE,135,7.8,-999.0,55,-99.99,,,0.00,Acu-Link.com,2013-04-11 21:19:00,
2013-04-11 15:34:00,38.8,23.2,29.74,ENE,67,11.9,-999.0,53,-99.99,,,0.00,Acu-Link.com,2013-04-11 21:34:00,
2013-04-11 15:49:00,38.3,22.7,29.75,ESE,112,11.9,-999.0,53,-99.99,,,0.00,Acu-Link.com,2013-04-11 21:49:00,
2013-04-11 16:04:00,38.1,23.0,29.75,East,90,10.3,-999.0,54,-99.99,,,0.00,Acu-Link.com,2013-04-11 22:04:00,
2013-04-11 16:20:00,37.4,22.3,29.74,ESE,112,21.7,-999.0,54,-99.99,,,0.00,Acu-Link.com,2013-04-11 22:20:00,
2013-04-11 16:35:00,37.4,21.4,29.75,ENE,67,9.8,-999.0,52,-99.99,,,0.00,Acu-Link.com,2013-04-11 22:35:00,
2013-04-11 16:50:00,37.4,21.4,29.75,ESE,112,8.9,-999.0,52,-99.99,,,0.00,Acu-Link.com,2013-04-11 22:50:00,
2013-04-11 17:05:00,37.6,21.1,29.75,ESE,112,8.3,-999.0,51,-99.99,,,0.00,Acu-Link.com,2013-04-11 23:05:00,
2013-04-11 17:20:00,36.7,21.6,29.75,ENE,67,11.0,-999.0,54,-99.99,,,0.00,Acu-Link.com,2013-04-11 23:20:00,
2013-04-11 17:35:00,37.0,20.1,29.75,WNW,292,8.3,-999.0,50,-99.99,,,0.00,Acu-Link.com,2013-04-11 23:35:00,
2013-04-11 17:51:00,37.0,20.1,29.75,NE,45,6.7,-999.0,50,-99.99,,,0.00,Acu-Link.com,2013-04-11 23:51:00,
2013-04-11 18:06:00,37.6,18.2,29.76,NNE,22,9.8,-999.0,45,-99.99,,,0.00,Acu-Link.com,2013-04-12 00:06:00,
2013-04-11 18:21:00,36.0,19.2,29.76,ENE,67,16.6,-999.0,50,-99.99,,,0.00,Acu-Link.com,2013-04-12 00:21:00,
2013-04-11 18:36:00,35.2,18.5,29.77,East,90,12.5,-999.0,50,-99.99,,,0.00,Acu-Link.com,2013-04-12 00:36:00,
2013-04-11 18:51:00,34.5,17.8,29.77,East,90,8.9,-999.0,50,-99.99,,,0.00,Acu-Link.com,2013-04-12 00:51:00,
2013-04-11 19:07:00,33.6,17.0,29.77,ENE,67,8.9,-999.0,50,-99.99,,,0.00,Acu-Link.com,2013-04-12 01:07:00,
2013-04-11 19:22:00,33.3,18.0,29.77,East,90,6.7,-999.0,53,-99.99,,,0.00,Acu-Link.com,2013-04-12 01:22:00,
2013-04-11 19:37:00,32.4,18.9,29.78,ESE,112,5.8,-999.0,57,-99.99,,,0.00,Acu-Link.com,2013-04-12 01:37:00,
2013-04-11 19:52:00,32.0,18.5,29.78,NE,45,10.3,-999.0,57,-99.99,,,0.00,Acu-Link.com,2013-04-12 01:52:00,
2013-04-11 20:07:00,31.5,18.8,29.79,East,90,5.8,-999.0,59,-99.99,,,0.00,Acu-Link.com,2013-04-12 02:07:00,
2013-04-11 20:23:00,30.6,20.6,29.79,East,90,8.9,-999.0,66,-99.99,,,0.00,Acu-Link.com,2013-04-12 02:23:00,
2013-04-11 20:38:00,30.4,20.4,29.79,East,90,7.4,-999.0,66,-99.99,,,0.00,Acu-Link.com,2013-04-12 02:38:00,
2013-04-11 20:53:00,29.7,21.1,29.80,East,90,6.3,-999.0,70,-99.99,,,0.00,Acu-Link.com,2013-04-12 02:53:00,
2013-04-11 21:08:00,29.5,21.3,29.80,ENE,67,7.8,-999.0,71,-99.99,,,0.00,Acu-Link.com,2013-04-12 03:08:00,
2013-04-11 21:23:00,28.8,21.5,29.81,East,90,6.7,-999.0,74,-99.99,,,0.00,Acu-Link.com,2013-04-12 03:23:00,
2013-04-11 21:38:00,28.6,21.7,29.81,East,90,6.3,-999.0,75,-99.99,,,0.00,Acu-Link.com,2013-04-12 03:38:00,
2013-04-11 21:54:00,28.6,22.0,29.81,East,90,6.7,-999.0,76,-99.99,,,0.00,Acu-Link.com,2013-04-12 03:54:00,
2013-04-11 22:09:00,28.6,22.3,29.81,East,90,4.3,-999.0,77,-99.99,,,0.00,Acu-Link.com,2013-04-12 04:09:00,
2013-04-11 22:24:00,28.4,21.5,29.81,East,90,5.8,-999.0,75,-99.99,,,0.00,Acu-Link.com,2013-04-12 04:24:00,
2013-04-11 22:39:00,28.0,21.2,29.81,ESE,112,4.7,-999.0,75,-99.99,,,0.00,Acu-Link.com,2013-04-12 04:39:00,
2013-04-11 22:54:00,27.7,21.7,29.81,East,90,7.4,-999.0,78,-99.99,,,0.00,Acu-Link.com,2013-04-12 04:54:00,
2013-04-11 23:10:00,26.8,21.7,29.81,ESE,112,6.7,-999.0,81,-99.99,,,0.00,Acu-Link.com,2013-04-12 05:10:00,
2013-04-11 23:25:00,26.6,22.1,29.80,ESE,112,8.3,-999.0,83,-99.99,,,0.00,Acu-Link.com,2013-04-12 05:25:00,
2013-04-11 23:40:00,26.2,22.4,29.80,East,90,4.7,-999.0,85,-99.99,,,0.00,Acu-Link.com,2013-04-12 05:40:00,
2013-04-11 23:55:00,26.1,22.5,29.80,ESE,112,5.8,-999.0,86,-99.99,,,0.00,Acu-Link.com,2013-04-12 05:55:00,